Douala, Cameroon
Current Conditions -  °F | °C
As of 10:00 PM on Thursday 18 Dec 2014 (Local Time) from FKKD Reporting Station
Haze Haze  
Wind Chill: 79°   Ceiling: Unl
Heat Index: 83°   Visibility: 1.5mi
Dew Point: 77°   Wind: 0mph
Humidity: 94%   Direction: NA
Pressure: 29.88"   Gusts: NA
Location:  4.06°N, 9.71°E
Report Text: FKKD 182100Z 00000KT 2500 BR FEW016 FEW020CB 26/25 Q1012 NOSIG
Loading
Personal Weather Stations






























Interactive Weather Map New forecast layout! Learn more

10-Day Weather Forecast

Advertisements
Track Severe Weather on mobile